Time;durP1;ratioP1;P1;durP2;ratioP2;P2;SDS_P1;SDS_P2;PMS_P1;PMS_P2;Temp;Humidity;BMP_temperature;BMP_pressure;BME280_temperature;BME280_humidity;BME280_pressure;Samples;Min_cycle;Max_cycle;Signal;HPM_P1;HPM_P2
2022/03/24 00:00:17;;;;;;;79.63;33.45;;;;;;;;;;4977154;28;20041;-89
2022/03/24 00:02:44;;;;;;;84.50;32.45;;;;;;;;;;4974402;28;20041;-89
2022/03/24 00:05:12;;;;;;;78.18;32.80;;;;;;;;;;4977999;28;20517;-90
2022/03/24 00:07:38;;;;;;;73.97;33.20;;;;;;;;;;4977033;28;20031;-89
2022/03/24 00:10:06;;;;;;;83.88;35.60;;;;;;;;;;4976638;28;20027;-90
2022/03/24 00:12:34;;;;;;;77.88;34.35;;;;;;;;;;4977540;28;20089;-90
2022/03/24 00:15:01;;;;;;;86.05;33.78;;;;;;;;;;4976295;28;20521;-90
2022/03/24 00:17:27;;;;;;;86.93;35.60;;;;;;;;;;4975480;28;20039;-90
2022/03/24 00:20:15;;;;;;;82.85;35.97;;;;;;;;;;4979942;28;20105;-89
2022/03/24 00:22:41;;;;;;;73.28;33.17;;;;;;;;;;4977520;28;20089;-90
2022/03/24 00:25:25;;;;;;;78.55;33.80;;;;;;;;;;4975339;28;20485;-90
2022/03/24 00:27:51;;;;;;;65.78;29.25;;;;;;;;;;4976617;28;20117;-90
2022/03/24 00:30:22;;;;;;;67.70;28.77;;;;;;;;;;4976095;28;20042;-90
2022/03/24 00:32:48;;;;;;;67.30;28.65;;;;;;;;;;4975901;28;20034;-89
2022/03/24 00:35:27;;;;;;;61.95;27.08;;;;;;;;;;4967622;28;20961;-90
2022/03/24 00:37:53;;;;;;;61.60;25.50;;;;;;;;;;4975743;28;20150;-90
2022/03/24 00:40:22;;;;;;;58.92;24.35;;;;;;;;;;4983078;28;20038;-89
2022/03/24 00:42:50;;;;;;;51.35;21.50;;;;;;;;;;4964663;28;20034;-90
2022/03/24 00:45:24;;;;;;;52.95;22.80;;;;;;;;;;4977174;28;20054;-89
2022/03/24 00:47:50;;;;;;;58.65;25.65;;;;;;;;;;4980842;28;20039;-89
2022/03/24 00:50:21;;;;;;;69.28;28.10;;;;;;;;;;4983782;28;20030;-90
2022/03/24 00:52:47;;;;;;;80.90;33.92;;;;;;;;;;4975758;28;20031;-90
2022/03/24 00:58:46;;;;;;;82.25;35.00;;;;;;;;;;4977777;28;20041;-91
2022/03/24 01:04:19;;;;;;;79.35;33.53;;;;;;;;;;4985161;28;20516;-92
2022/03/24 01:09:50;;;;;;;56.92;25.92;;;;;;;;;;4978094;28;20521;-91
2022/03/24 01:12:35;;;;;;;59.05;24.80;;;;;;;;;;4962041;28;20542;-92
2022/03/24 01:15:05;;;;;;;50.33;23.15;;;;;;;;;;4640905;28;9999637;-92
2022/03/24 01:18:06;;;;;;;52.72;24.25;;;;;;;;;;4976365;28;20055;-93
2022/03/24 01:20:32;;;;;;;50.70;22.15;;;;;;;;;;4984325;28;20046;-93
2022/03/24 01:23:25;;;;;;;47.45;22.17;;;;;;;;;;4967969;28;20031;-92
2022/03/24 01:25:54;;;;;;;53.00;22.15;;;;;;;;;;4967230;28;20042;-92
2022/03/24 01:33:16;;;;;;;45.83;20.33;;;;;;;;;;4914953;28;20028;-90
2022/03/24 01:35:44;;;;;;;40.50;19.38;;;;;;;;;;4920992;29;20575;-90
2022/03/24 01:38:10;;;;;;;37.63;18.15;;;;;;;;;;4919168;29;20040;-91
2022/03/24 01:40:37;;;;;;;39.95;17.38;;;;;;;;;;4919993;29;20052;-92
2022/03/24 01:43:12;;;;;;;34.67;15.35;;;;;;;;;;4903482;29;20044;-92
2022/03/24 01:45:39;;;;;;;28.33;14.30;;;;;;;;;;4927704;29;20036;-90
2022/03/24 01:48:08;;;;;;;33.28;13.32;;;;;;;;;;4899157;29;20036;-90
2022/03/24 01:50:35;;;;;;;28.02;12.40;;;;;;;;;;4930588;29;20096;-92
2022/03/24 01:53:02;;;;;;;26.25;13.35;;;;;;;;;;4925418;29;20042;-90
2022/03/24 01:55:28;;;;;;;30.67;13.77;;;;;;;;;;4901739;29;20084;-91
2022/03/24 01:57:57;;;;;;;27.77;12.70;;;;;;;;;;4924412;29;20097;-90
2022/03/24 02:00:23;;;;;;;30.55;13.88;;;;;;;;;;4897545;29;20087;-90
2022/03/24 02:02:51;;;;;;;29.25;14.45;;;;;;;;;;4912574;29;20040;-90
2022/03/24 02:05:19;;;;;;;28.85;12.18;;;;;;;;;;4903643;29;20036;-90
2022/03/24 02:07:46;;;;;;;30.13;13.15;;;;;;;;;;4921118;29;20032;-91
2022/03/24 02:10:12;;;;;;;21.95;11.68;;;;;;;;;;4914400;29;20040;-92
2022/03/24 02:12:41;;;;;;;24.92;12.35;;;;;;;;;;4918016;29;20480;-91
2022/03/24 02:15:07;;;;;;;24.67;12.90;;;;;;;;;;4900613;29;20028;-91
2022/03/24 02:17:39;;;;;;;26.75;13.07;;;;;;;;;;4914253;29;21338;-92
2022/03/24 02:20:09;;;;;;;28.35;12.68;;;;;;;;;;4911100;29;20042;-93
2022/03/24 02:22:39;;;;;;;24.55;10.60;;;;;;;;;;4917174;29;20058;-90
2022/03/24 02:25:07;;;;;;;21.60;10.35;;;;;;;;;;4922133;29;20099;-90
2022/03/24 02:27:34;;;;;;;21.48;10.27;;;;;;;;;;4911788;29;20043;-90
2022/03/24 02:30:03;;;;;;;22.98;10.38;;;;;;;;;;4933416;29;20043;-89
2022/03/24 02:32:35;;;;;;;22.33;11.20;;;;;;;;;;4902478;29;20153;-89
2022/03/24 02:35:01;;;;;;;19.98;10.57;;;;;;;;;;4921956;29;20055;-89
2022/03/24 02:37:33;;;;;;;23.33;11.57;;;;;;;;;;4906257;29;20040;-89
2022/03/24 02:40:00;;;;;;;23.70;11.10;;;;;;;;;;4928781;29;20063;-91
2022/03/24 02:42:38;;;;;;;20.55;10.20;;;;;;;;;;4914009;29;20390;-89
2022/03/24 02:45:06;;;;;;;25.27;12.07;;;;;;;;;;4924327;29;20075;-89
2022/03/24 02:47:35;;;;;;;22.95;11.98;;;;;;;;;;4932984;29;23539;-90
2022/03/24 02:50:01;;;;;;;25.20;11.95;;;;;;;;;;4906710;29;20207;-90
2022/03/24 02:52:28;;;;;;;30.10;13.80;;;;;;;;;;4893408;29;20039;-90
2022/03/24 02:54:55;;;;;;;29.52;14.48;;;;;;;;;;4915497;29;20036;-89
2022/03/24 02:57:24;;;;;;;28.40;13.20;;;;;;;;;;4925900;29;20143;-89
2022/03/24 02:59:50;;;;;;;28.13;15.13;;;;;;;;;;4921189;29;20715;-90
2022/03/24 03:02:22;;;;;;;28.48;14.57;;;;;;;;;;4914965;29;20024;-89
2022/03/24 03:04:53;;;;;;;30.52;14.30;;;;;;;;;;4900791;29;20044;-90
2022/03/24 03:07:28;;;;;;;31.83;15.63;;;;;;;;;;4919983;29;20313;-89
2022/03/24 03:09:54;;;;;;;28.88;16.13;;;;;;;;;;4904524;29;20048;-88
2022/03/24 03:12:47;;;;;;;34.00;15.73;;;;;;;;;;4916042;29;20050;-90
2022/03/24 03:15:25;;;;;;;38.85;17.50;;;;;;;;;;4890745;29;20607;-89
2022/03/24 03:17:51;;;;;;;41.65;18.17;;;;;;;;;;4914468;29;20040;-88
2022/03/24 03:20:20;;;;;;;37.45;19.85;;;;;;;;;;4900328;29;20163;-90
2022/03/24 03:22:55;;;;;;;33.33;18.23;;;;;;;;;;4931989;29;20191;-91
2022/03/24 03:25:22;;;;;;;40.53;19.23;;;;;;;;;;4944308;29;20043;-93
2022/03/24 03:30:52;;;;;;;42.55;19.58;;;;;;;;;;4938845;29;20108;-93
2022/03/24 03:40:10;;;;;;;43.47;20.08;;;;;;;;;;4947522;29;20035;-93
2022/03/24 03:43:17;;;;;;;45.60;19.52;;;;;;;;;;4916916;29;20450;-92
2022/03/24 03:45:44;;;;;;;49.35;21.02;;;;;;;;;;4922879;29;20124;-92
2022/03/24 03:48:11;;;;;;;44.03;22.00;;;;;;;;;;4935324;29;20047;-93
2022/03/24 03:50:48;;;;;;;44.00;20.95;;;;;;;;;;4927809;29;20040;-92
2022/03/24 03:53:14;;;;;;;45.33;20.92;;;;;;;;;;4906328;29;20919;-92
2022/03/24 03:56:00;;;;;;;45.92;20.08;;;;;;;;;;4920172;29;20518;-92
2022/03/24 03:58:26;;;;;;;51.47;22.67;;;;;;;;;;4923881;29;20391;-91
2022/03/24 04:01:04;;;;;;;42.70;19.65;;;;;;;;;;4920647;29;20171;-92
2022/03/24 04:03:31;;;;;;;38.38;18.38;;;;;;;;;;4903663;29;20042;-93
2022/03/24 04:08:52;;;;;;;29.80;16.02;;;;;;;;;;4920040;29;20033;-92
2022/03/24 04:14:56;;;;;;;28.83;14.77;;;;;;;;;;4869639;29;20133;-93
2022/03/24 04:17:22;;;;;;;25.15;13.55;;;;;;;;;;4919371;29;20040;-92
2022/03/24 04:19:54;;;;;;;29.75;14.23;;;;;;;;;;4901671;29;20040;-93
2022/03/24 04:22:21;;;;;;;27.73;13.95;;;;;;;;;;4919683;29;20032;-94
2022/03/24 04:24:49;;;;;;;40.65;17.98;;;;;;;;;;4935379;29;20043;-93
2022/03/24 04:27:16;;;;;;;32.42;16.98;;;;;;;;;;4919587;29;20079;-93
2022/03/24 04:29:42;;;;;;;32.80;16.75;;;;;;;;;;4916539;29;20119;-93
2022/03/24 04:32:41;;;;;;;34.83;16.58;;;;;;;;;;4922652;29;20027;-94
2022/03/24 04:35:08;;;;;;;36.38;17.90;;;;;;;;;;4908176;29;20391;-93
2022/03/24 04:37:35;;;;;;;36.95;17.50;;;;;;;;;;4899604;29;20263;-92
2022/03/24 04:40:24;;;;;;;33.65;18.00;;;;;;;;;;4901343;29;20051;-91
2022/03/24 04:42:52;;;;;;;31.42;15.48;;;;;;;;;;4898438;29;20041;-92
2022/03/24 04:45:29;;;;;;;32.72;17.10;;;;;;;;;;4914359;29;20040;-88
2022/03/24 04:47:55;;;;;;;26.63;13.93;;;;;;;;;;4923357;29;20164;-89
2022/03/24 04:50:22;;;;;;;30.85;15.27;;;;;;;;;;4903656;29;20037;-89
2022/03/24 04:52:49;;;;;;;28.23;13.48;;;;;;;;;;4905139;29;20493;-89
2022/03/24 04:55:17;;;;;;;29.20;14.40;;;;;;;;;;4923517;29;20040;-86
2022/03/24 04:57:43;;;;;;;29.17;15.60;;;;;;;;;;4899684;29;20046;-87
2022/03/24 05:00:10;;;;;;;33.88;15.18;;;;;;;;;;4899497;29;20052;-88
2022/03/24 05:02:39;;;;;;;30.02;15.32;;;;;;;;;;4896579;29;20036;-87
2022/03/24 05:05:06;;;;;;;32.53;17.67;;;;;;;;;;4900745;29;20036;-87
2022/03/24 05:07:35;;;;;;;44.47;19.65;;;;;;;;;;4910832;29;20047;-87
2022/03/24 05:10:01;;;;;;;40.60;20.25;;;;;;;;;;4897967;29;20135;-87
2022/03/24 05:12:30;;;;;;;43.65;20.42;;;;;;;;;;4897950;29;20552;-89
2022/03/24 05:14:57;;;;;;;37.97;19.80;;;;;;;;;;4899194;29;20063;-87
2022/03/24 05:17:26;;;;;;;40.75;20.30;;;;;;;;;;4908942;29;20040;-87
2022/03/24 05:19:52;;;;;;;45.90;21.63;;;;;;;;;;4913581;29;20044;-88
2022/03/24 05:22:22;;;;;;;39.00;20.35;;;;;;;;;;4898249;29;20063;-87
2022/03/24 05:24:48;;;;;;;39.47;21.10;;;;;;;;;;4899456;29;20043;-86
2022/03/24 05:27:34;;;;;;;40.60;20.25;;;;;;;;;;4903327;29;20052;-86
2022/03/24 05:30:00;;;;;;;33.08;16.85;;;;;;;;;;4897812;29;20088;-85
2022/03/24 05:32:33;;;;;;;32.03;16.98;;;;;;;;;;4898124;29;20036;-86
2022/03/24 05:35:00;;;;;;;33.15;17.35;;;;;;;;;;4898806;29;20072;-85
2022/03/24 05:37:27;;;;;;;30.08;16.23;;;;;;;;;;4913392;29;20051;-85
2022/03/24 05:39:54;;;;;;;32.92;16.42;;;;;;;;;;4928083;29;20932;-85
2022/03/24 05:42:21;;;;;;;29.67;16.10;;;;;;;;;;4912371;29;20052;-87
2022/03/24 05:45:12;;;;;;;30.58;16.45;;;;;;;;;;4929111;29;20087;-86
2022/03/24 05:47:39;;;;;;;34.10;16.65;;;;;;;;;;4882899;29;20075;-85
2022/03/24 05:50:05;;;;;;;37.45;18.77;;;;;;;;;;4921448;29;20043;-86
2022/03/24 05:52:32;;;;;;;35.85;19.67;;;;;;;;;;4899854;29;20043;-86
2022/03/24 05:54:58;;;;;;;34.17;19.25;;;;;;;;;;4900979;29;20048;-87
2022/03/24 05:57:25;;;;;;;33.55;18.55;;;;;;;;;;4913803;29;20071;-87
2022/03/24 05:59:51;;;;;;;35.58;19.85;;;;;;;;;;4897236;29;20091;-87
2022/03/24 06:02:20;;;;;;;42.80;18.85;;;;;;;;;;4916074;29;20407;-86
2022/03/24 06:04:48;;;;;;;36.60;19.27;;;;;;;;;;4930327;29;20043;-88
2022/03/24 06:07:14;;;;;;;36.20;19.10;;;;;;;;;;4915531;29;20467;-87
2022/03/24 06:09:45;;;;;;;35.47;18.75;;;;;;;;;;4903471;29;20039;-87
2022/03/24 06:12:13;;;;;;;32.58;17.98;;;;;;;;;;4917572;29;20499;-90
2022/03/24 06:14:40;;;;;;;36.45;18.15;;;;;;;;;;4902125;29;20036;-91
2022/03/24 06:17:07;;;;;;;28.90;15.38;;;;;;;;;;4924900;29;20028;-91
2022/03/24 06:19:35;;;;;;;39.47;21.25;;;;;;;;;;4898610;29;20119;-90
2022/03/24 06:22:02;;;;;;;32.70;17.52;;;;;;;;;;4917197;29;20043;-91
2022/03/24 06:24:31;;;;;;;37.70;19.67;;;;;;;;;;4901044;29;20047;-92
2022/03/24 06:26:58;;;;;;;35.60;17.25;;;;;;;;;;4927537;29;20032;-93
2022/03/24 06:29:32;;;;;;;33.53;18.80;;;;;;;;;;4917821;29;20040;-94
2022/03/24 06:31:59;;;;;;;32.05;17.05;;;;;;;;;;4918850;29;20092;-92
2022/03/24 06:37:51;;;;;;;30.60;16.40;;;;;;;;;;4917740;29;20111;-91
2022/03/24 06:40:18;;;;;;;31.83;16.38;;;;;;;;;;4908559;29;20131;-89
2022/03/24 06:42:50;;;;;;;34.72;18.00;;;;;;;;;;4925145;29;20088;-90
2022/03/24 06:45:17;;;;;;;28.77;15.55;;;;;;;;;;4934262;29;20048;-90
2022/03/24 06:48:02;;;;;;;23.05;12.75;;;;;;;;;;4903261;29;20502;-88
2022/03/24 06:52:54;;;;;;;22.20;11.88;;;;;;;;;;4928259;28;20066;-91
2022/03/24 06:58:25;;;;;;;24.20;12.32;;;;;;;;;;4963104;28;20035;-88
2022/03/24 07:00:58;;;;;;;26.25;14.02;;;;;;;;;;4967298;28;20127;-89
2022/03/24 07:03:25;;;;;;;27.58;14.10;;;;;;;;;;4955027;28;20482;-89
2022/03/24 07:05:54;;;;;;;32.50;16.33;;;;;;;;;;4954250;28;20110;-89
2022/03/24 07:08:22;;;;;;;30.13;16.42;;;;;;;;;;4956827;28;20035;-90
2022/03/24 07:10:55;;;;;;;29.77;16.05;;;;;;;;;;4952856;28;20051;-90
2022/03/24 07:13:22;;;;;;;33.60;18.73;;;;;;;;;;4954651;29;20046;-90
2022/03/24 07:15:49;;;;;;;34.40;17.95;;;;;;;;;;4954570;29;20394;-92
2022/03/24 07:18:15;;;;;;;35.10;18.45;;;;;;;;;;4957724;28;20046;-93
2022/03/24 07:20:57;;;;;;;58.15;31.42;;;;;;;;;;4954937;28;20050;-93
2022/03/24 07:23:23;;;;;;;60.50;31.85;;;;;;;;;;4953825;29;20037;-92
2022/03/24 07:25:50;;;;;;;62.88;32.35;;;;;;;;;;4954313;28;20031;-92
2022/03/24 07:28:16;;;;;;;70.43;33.92;;;;;;;;;;4953842;29;20442;-93
2022/03/24 07:30:50;;;;;;;62.33;32.30;;;;;;;;;;4953580;29;20036;-90
2022/03/24 07:33:18;;;;;;;53.22;29.58;;;;;;;;;;4953277;28;20047;-90
2022/03/24 07:35:48;;;;;;;53.53;30.67;;;;;;;;;;4954173;29;20086;-91
2022/03/24 07:38:15;;;;;;;56.70;30.45;;;;;;;;;;4960202;28;20041;-91
2022/03/24 07:40:44;;;;;;;63.08;32.30;;;;;;;;;;4952837;28;20526;-91
2022/03/24 07:43:12;;;;;;;57.30;29.98;;;;;;;;;;4616125;28;9999649;-91
2022/03/24 07:45:39;;;;;;;58.22;31.98;;;;;;;;;;4951453;29;20035;-91
2022/03/24 07:51:10;;;;;;;67.30;35.90;;;;;;;;;;4973471;28;20501;-92
2022/03/24 07:53:46;;;;;;;74.40;39.53;;;;;;;;;;4970215;28;20051;-91
2022/03/24 07:56:13;;;;;;;65.97;37.00;;;;;;;;;;4946772;29;20067;-92
2022/03/24 07:58:40;;;;;;;72.15;37.67;;;;;;;;;;4939224;29;20032;-92
2022/03/24 08:01:07;;;;;;;69.07;37.90;;;;;;;;;;4938645;29;20061;-92
2022/03/24 08:03:34;;;;;;;60.80;34.80;;;;;;;;;;4966288;28;20082;-92
2022/03/24 08:06:15;;;;;;;60.25;32.00;;;;;;;;;;4955254;28;20406;-91
2022/03/24 08:08:50;;;;;;;75.75;41.42;;;;;;;;;;4957796;28;20058;-90
2022/03/24 08:11:16;;;;;;;74.47;40.47;;;;;;;;;;4957122;28;20090;-91
2022/03/24 08:14:04;;;;;;;69.13;38.25;;;;;;;;;;4953842;28;20035;-90
2022/03/24 08:16:30;;;;;;;68.47;36.35;;;;;;;;;;4941237;28;20089;-91
2022/03/24 08:22:07;;;;;;;65.82;36.22;;;;;;;;;;4958793;29;20071;-92
2022/03/24 08:24:33;;;;;;;60.65;34.65;;;;;;;;;;4958502;29;20087;-92
2022/03/24 08:27:12;;;;;;;67.90;38.00;;;;;;;;;;4957589;29;20065;-92
2022/03/24 08:29:40;;;;;;;76.40;40.90;;;;;;;;;;4952068;28;20035;-91
2022/03/24 08:32:07;;;;;;;71.75;38.00;;;;;;;;;;4972306;28;20070;-90
2022/03/24 08:34:34;;;;;;;73.95;41.67;;;;;;;;;;4939316;29;20039;-91
2022/03/24 08:37:05;;;;;;;66.95;37.88;;;;;;;;;;4943401;28;20031;-89
2022/03/24 08:39:38;;;;;;;69.85;38.35;;;;;;;;;;4959681;28;20557;-90
2022/03/24 08:42:05;;;;;;;68.15;38.75;;;;;;;;;;4970948;28;20044;-90
2022/03/24 08:44:43;;;;;;;64.45;37.78;;;;;;;;;;4960401;28;20494;-91
2022/03/24 08:47:09;;;;;;;65.75;38.15;;;;;;;;;;4955813;28;20043;-91
2022/03/24 08:49:36;;;;;;;70.25;37.95;;;;;;;;;;4934239;28;20039;-90
2022/03/24 08:52:03;;;;;;;62.17;32.88;;;;;;;;;;4958007;28;20067;-90
2022/03/24 08:54:29;;;;;;;46.88;25.60;;;;;;;;;;4971369;28;20099;-90
2022/03/24 08:56:58;;;;;;;42.40;23.48;;;;;;;;;;4955250;28;20134;-87
2022/03/24 08:59:24;;;;;;;39.97;21.83;;;;;;;;;;4956575;28;20126;-90
2022/03/24 09:02:08;;;;;;;44.58;23.50;;;;;;;;;;4956074;29;20046;-89
2022/03/24 09:04:34;;;;;;;46.33;25.65;;;;;;;;;;4964756;28;20529;-90
2022/03/24 09:07:05;;;;;;;48.72;28.63;;;;;;;;;;4955651;28;20091;-90
2022/03/24 09:09:32;;;;;;;50.45;27.60;;;;;;;;;;4953240;28;20054;-90
2022/03/24 09:11:58;;;;;;;50.70;27.77;;;;;;;;;;4956235;28;20038;-90
2022/03/24 09:14:25;;;;;;;58.03;30.75;;;;;;;;;;4964470;28;20041;-91
2022/03/24 09:17:05;;;;;;;52.80;27.77;;;;;;;;;;4955145;28;20062;-89
2022/03/24 09:19:32;;;;;;;47.05;25.48;;;;;;;;;;4950510;28;20090;-90
2022/03/24 09:25:15;;;;;;;56.38;30.00;;;;;;;;;;4957209;28;20374;-91
2022/03/24 09:28:04;;;;;;;55.28;32.60;;;;;;;;;;4961969;28;20509;-90
2022/03/24 09:30:30;;;;;;;66.10;34.97;;;;;;;;;;4968449;28;20505;-90
2022/03/24 09:33:16;;;;;;;59.75;36.05;;;;;;;;;;4957787;28;20063;-90
2022/03/24 09:35:42;;;;;;;65.22;34.58;;;;;;;;;;4940888;29;20063;-90
2022/03/24 09:38:23;;;;;;;59.55;33.28;;;;;;;;;;4962686;28;20032;-90
2022/03/24 09:40:51;;;;;;;59.25;32.75;;;;;;;;;;4955310;29;20122;-90
2022/03/24 09:43:35;;;;;;;62.60;34.75;;;;;;;;;;4956118;28;20035;-91
2022/03/24 09:46:02;;;;;;;55.63;33.10;;;;;;;;;;4954050;28;20058;-91
2022/03/24 09:48:51;;;;;;;63.33;35.33;;;;;;;;;;4956650;28;20561;-91
2022/03/24 09:51:17;;;;;;;64.88;36.30;;;;;;;;;;4941388;29;20047;-89
2022/03/24 09:54:12;;;;;;;55.70;32.33;;;;;;;;;;4954479;29;20046;-91
2022/03/24 09:56:39;;;;;;;65.88;35.55;;;;;;;;;;4951970;28;20040;-91
2022/03/24 09:59:13;;;;;;;62.33;36.80;;;;;;;;;;4924850;29;20040;-89
2022/03/24 10:01:40;;;;;;;67.43;38.13;;;;;;;;;;4581381;29;9999925;-89
2022/03/24 10:04:11;;;;;;;62.08;35.33;;;;;;;;;;4934013;29;20047;-88
2022/03/24 10:06:59;;;;;;;65.68;36.95;;;;;;;;;;4939423;29;20040;-89
2022/03/24 10:09:35;;;;;;;66.70;36.25;;;;;;;;;;4937099;29;20723;-89
2022/03/24 10:12:03;;;;;;;65.05;36.97;;;;;;;;;;4945772;29;20031;-89
2022/03/24 10:14:30;;;;;;;75.15;39.13;;;;;;;;;;4935836;29;20067;-89
2022/03/24 10:17:10;;;;;;;73.85;42.53;;;;;;;;;;4935216;29;20070;-89
2022/03/24 10:19:36;;;;;;;68.93;37.00;;;;;;;;;;4942123;29;20031;-89
2022/03/24 10:22:12;;;;;;;65.13;36.97;;;;;;;;;;4950845;29;20040;-90
2022/03/24 10:24:44;;;;;;;68.38;37.70;;;;;;;;;;4947636;29;20040;-90
2022/03/24 10:27:26;;;;;;;70.45;38.35;;;;;;;;;;4935227;29;20039;-90
2022/03/24 10:29:56;;;;;;;71.30;37.50;;;;;;;;;;4922433;29;20040;-91
2022/03/24 10:32:34;;;;;;;70.82;40.30;;;;;;;;;;4935590;29;20033;-90
2022/03/24 10:35:10;;;;;;;71.00;38.90;;;;;;;;;;4939413;29;20488;-90
2022/03/24 10:37:47;;;;;;;65.00;35.78;;;;;;;;;;4953679;29;20062;-90
2022/03/24 10:40:13;;;;;;;80.60;43.58;;;;;;;;;;4924024;29;20043;-89
2022/03/24 10:42:41;;;;;;;75.85;42.25;;;;;;;;;;4936151;29;20503;-90
2022/03/24 10:50:18;;;;;;;73.13;40.70;;;;;;;;;;4945538;28;20454;-89
2022/03/24 10:52:44;;;;;;;70.28;39.20;;;;;;;;;;4973136;28;20376;-90
2022/03/24 10:55:33;;;;;;;72.07;40.78;;;;;;;;;;4979879;28;20027;-90
2022/03/24 10:58:00;;;;;;;69.32;39.95;;;;;;;;;;4979082;28;20059;-90
2022/03/24 11:00:42;;;;;;;74.30;41.17;;;;;;;;;;4964511;28;20178;-90
2022/03/24 11:03:08;;;;;;;71.57;40.10;;;;;;;;;;4973318;28;20475;-89
2022/03/24 11:05:36;;;;;;;73.65;41.03;;;;;;;;;;4990386;28;20050;-89
2022/03/24 11:08:08;;;;;;;68.53;39.50;;;;;;;;;;4977747;28;20030;-89
2022/03/24 11:10:45;;;;;;;68.13;37.75;;;;;;;;;;4970834;28;20043;-90
2022/03/24 11:13:14;;;;;;;72.55;40.60;;;;;;;;;;4969645;28;20063;-90
2022/03/24 11:15:42;;;;;;;70.45;39.53;;;;;;;;;;4979505;28;20674;-91
2022/03/24 11:18:09;;;;;;;76.50;41.15;;;;;;;;;;4962928;28;20063;-91
2022/03/24 11:20:40;;;;;;;77.03;41.50;;;;;;;;;;4973707;28;20043;-91
2022/03/24 11:23:24;;;;;;;75.18;42.05;;;;;;;;;;4975976;28;20037;-90
2022/03/24 11:25:56;;;;;;;72.18;39.28;;;;;;;;;;4967823;28;20105;-90
2022/03/24 11:28:24;;;;;;;72.95;40.22;;;;;;;;;;4970330;28;20093;-90
2022/03/24 11:30:51;;;;;;;71.95;39.45;;;;;;;;;;4972240;28;20094;-90
2022/03/24 11:33:27;;;;;;;82.05;43.05;;;;;;;;;;4974008;28;20133;-90
2022/03/24 11:35:53;;;;;;;77.75;43.13;;;;;;;;;;4977592;28;20522;-90
2022/03/24 11:38:20;;;;;;;73.50;41.92;;;;;;;;;;4972681;28;20486;-92
2022/03/24 11:41:07;;;;;;;65.38;39.13;;;;;;;;;;4957879;28;20039;-91
2022/03/24 11:43:36;;;;;;;76.88;40.13;;;;;;;;;;4959845;28;20027;-91
2022/03/24 11:46:05;;;;;;;74.68;40.72;;;;;;;;;;4954961;28;20494;-91
2022/03/24 11:48:36;;;;;;;74.57;42.15;;;;;;;;;;4972016;28;20186;-90
2022/03/24 11:51:07;;;;;;;88.88;47.13;;;;;;;;;;4954651;28;20088;-91
2022/03/24 11:53:36;;;;;;;89.45;46.55;;;;;;;;;;4948249;28;20052;-91
2022/03/24 11:56:03;;;;;;;84.10;45.58;;;;;;;;;;4960890;28;20082;-91
2022/03/24 11:58:33;;;;;;;90.10;46.90;;;;;;;;;;4954517;28;20050;-91
2022/03/24 12:01:20;;;;;;;87.50;48.17;;;;;;;;;;4957491;28;20036;-91
2022/03/24 12:03:53;;;;;;;99.90;49.67;;;;;;;;;;4947183;28;20050;-91
2022/03/24 12:06:40;;;;;;;99.43;50.58;;;;;;;;;;4956677;28;20047;-91
2022/03/24 12:09:07;;;;;;;96.68;51.20;;;;;;;;;;4959941;28;20508;-91
2022/03/24 12:11:53;;;;;;;97.30;50.22;;;;;;;;;;4965468;28;20043;-91
2022/03/24 12:14:21;;;;;;;92.38;48.30;;;;;;;;;;4958226;28;20107;-91
2022/03/24 12:16:53;;;;;;;90.03;49.15;;;;;;;;;;4946854;28;20035;-91
2022/03/24 12:19:38;;;;;;;95.85;46.58;;;;;;;;;;4955805;28;20125;-91
2022/03/24 12:22:29;;;;;;;101.50;53.70;;;;;;;;;;4965449;28;20038;-91
2022/03/24 12:25:02;;;;;;;106.40;52.90;;;;;;;;;;4953286;28;20140;-91
2022/03/24 12:27:47;;;;;;;112.05;53.25;;;;;;;;;;4967582;28;20039;-91
2022/03/24 12:30:15;;;;;;;105.07;53.10;;;;;;;;;;4958903;28;20046;-91
2022/03/24 12:33:02;;;;;;;105.47;53.58;;;;;;;;;;4957605;28;20031;-92
2022/03/24 12:35:52;;;;;;;98.28;50.85;;;;;;;;;;4961139;28;20032;-93
2022/03/24 12:38:23;;;;;;;109.47;55.92;;;;;;;;;;4955245;29;20070;-93
2022/03/24 12:41:08;;;;;;;100.65;52.65;;;;;;;;;;4958286;28;20032;-92
2022/03/24 12:46:55;;;;;;;108.30;54.38;;;;;;;;;;4958190;29;20030;-92
2022/03/24 12:49:21;;;;;;;106.70;53.15;;;;;;;;;;4960364;28;20036;-91
2022/03/24 12:52:01;;;;;;;118.53;58.75;;;;;;;;;;4957137;28;20877;-92
2022/03/24 12:54:29;;;;;;;115.95;56.40;;;;;;;;;;4966288;28;20035;-92
2022/03/24 12:57:26;;;;;;;116.90;57.35;;;;;;;;;;4964534;28;20031;-92
2022/03/24 12:59:53;;;;;;;126.85;62.13;;;;;;;;;;4970656;28;20501;-93
2022/03/24 13:02:43;;;;;;;114.68;58.35;;;;;;;;;;4960295;28;20490;-92
2022/03/24 13:05:13;;;;;;;103.60;53.97;;;;;;;;;;4950042;29;20039;-92
2022/03/24 13:07:40;;;;;;;109.45;53.17;;;;;;;;;;4950038;28;20095;-93
2022/03/24 13:10:10;;;;;;;106.88;53.83;;;;;;;;;;4956360;29;20110;-93
2022/03/24 13:12:41;;;;;;;114.22;53.95;;;;;;;;;;4957277;28;20035;-92
2022/03/24 13:15:27;;;;;;;120.75;57.53;;;;;;;;;;4956618;28;20035;-92
2022/03/24 13:17:56;;;;;;;115.18;54.83;;;;;;;;;;4955900;28;20089;-92
2022/03/24 13:20:26;;;;;;;111.88;55.65;;;;;;;;;;4958916;28;20043;-92
2022/03/24 13:22:53;;;;;;;117.03;56.90;;;;;;;;;;4957662;28;20066;-92
2022/03/24 13:25:36;;;;;;;120.22;54.85;;;;;;;;;;4954780;29;20106;-92
2022/03/24 13:30:57;;;;;;;154.18;68.03;;;;;;;;;;4944292;29;20047;-91
2022/03/24 13:33:46;;;;;;;137.70;61.40;;;;;;;;;;4958108;28;20482;-92
2022/03/24 13:36:12;;;;;;;140.07;62.97;;;;;;;;;;4963121;28;20455;-92
2022/03/24 13:38:38;;;;;;;139.75;62.58;;;;;;;;;;4963809;28;20035;-92
2022/03/24 13:41:07;;;;;;;126.72;60.45;;;;;;;;;;4958073;28;20405;-92
2022/03/24 13:43:34;;;;;;;153.15;66.80;;;;;;;;;;4961757;28;20086;-93
2022/03/24 13:46:01;;;;;;;156.93;68.35;;;;;;;;;;4943548;28;20063;-92
2022/03/24 13:48:32;;;;;;;150.52;66.35;;;;;;;;;;4957634;28;20038;-92
2022/03/24 13:54:19;;;;;;;143.68;65.40;;;;;;;;;;4975645;28;20029;-91
2022/03/24 13:56:45;;;;;;;157.88;68.55;;;;;;;;;;4958085;28;20133;-92
2022/03/24 13:59:12;;;;;;;164.43;71.30;;;;;;;;;;4974132;28;20098;-91
2022/03/24 14:01:38;;;;;;;163.55;75.82;;;;;;;;;;4973054;28;20141;-93
2022/03/24 14:07:09;;;;;;;181.45;80.80;;;;;;;;;;4974001;28;20176;-92
2022/03/24 14:09:39;;;;;;;205.48;83.97;;;;;;;;;;4975549;28;20034;-91
2022/03/24 14:12:06;;;;;;;201.48;84.57;;;;;;;;;;4972684;28;20398;-91
2022/03/24 14:14:45;;;;;;;187.05;80.03;;;;;;;;;;4976561;28;20490;-90
2022/03/24 14:17:16;;;;;;;198.68;80.72;;;;;;;;;;4983911;28;20478;-90
2022/03/24 14:19:59;;;;;;;189.45;79.00;;;;;;;;;;4978340;28;20038;-91
2022/03/24 14:22:25;;;;;;;181.93;77.55;;;;;;;;;;4972379;28;20041;-92
2022/03/24 14:24:52;;;;;;;198.25;78.90;;;;;;;;;;4974611;28;20081;-91
2022/03/24 14:27:21;;;;;;;208.27;80.50;;;;;;;;;;4973521;28;20081;-92
2022/03/24 14:30:07;;;;;;;194.75;78.55;;;;;;;;;;4972807;28;20043;-92
2022/03/24 14:32:42;;;;;;;194.38;81.90;;;;;;;;;;4970719;28;20391;-92
2022/03/24 14:35:21;;;;;;;193.52;80.07;;;;;;;;;;4972514;28;20113;-92
2022/03/24 14:38:01;;;;;;;234.75;93.43;;;;;;;;;;4973118;28;20042;-92
2022/03/24 14:40:38;;;;;;;210.07;88.25;;;;;;;;;;4955282;28;20413;-91
2022/03/24 14:43:10;;;;;;;216.48;88.75;;;;;;;;;;4972746;28;20031;-92
2022/03/24 14:45:38;;;;;;;229.30;94.85;;;;;;;;;;4971182;28;20497;-92
2022/03/24 14:48:25;;;;;;;241.27;100.03;;;;;;;;;;4983552;28;20038;-92
2022/03/24 14:50:59;;;;;;;238.35;98.40;;;;;;;;;;4973001;28;20506;-91
2022/03/24 14:53:27;;;;;;;241.20;103.15;;;;;;;;;;4973688;28;20133;-92
2022/03/24 14:55:54;;;;;;;245.40;103.72;;;;;;;;;;4973671;28;20101;-92
2022/03/24 14:58:20;;;;;;;251.32;108.57;;;;;;;;;;4977666;28;20042;-92
2022/03/24 15:01:01;;;;;;;272.38;119.35;;;;;;;;;;4976118;28;20494;-92
2022/03/24 15:03:27;;;;;;;289.45;124.05;;;;;;;;;;4971629;28;20035;-92
2022/03/24 15:05:53;;;;;;;289.05;127.70;;;;;;;;;;4968049;28;20830;-92
2022/03/24 15:08:20;;;;;;;288.15;130.88;;;;;;;;;;4974137;28;20047;-90
2022/03/24 15:10:46;;;;;;;291.50;128.18;;;;;;;;;;4969984;28;20035;-92
2022/03/24 15:13:12;;;;;;;297.58;128.77;;;;;;;;;;4972051;28;20043;-91
2022/03/24 15:18:48;;;;;;;296.95;127.82;;;;;;;;;;4967075;28;20061;-91
2022/03/24 15:21:15;;;;;;;285.48;125.43;;;;;;;;;;4975110;28;20050;-92
2022/03/24 15:23:41;;;;;;;300.67;131.35;;;;;;;;;;4972948;28;20043;-91
2022/03/24 15:26:11;;;;;;;303.15;132.63;;;;;;;;;;4973484;28;20486;-92
2022/03/24 15:28:38;;;;;;;323.70;143.70;;;;;;;;;;4976243;28;20062;-93
2022/03/24 15:31:04;;;;;;;320.00;136.73;;;;;;;;;;4977763;28;20109;-92
2022/03/24 15:33:30;;;;;;;328.13;143.90;;;;;;;;;;4977656;28;20039;-92
2022/03/24 15:35:57;;;;;;;318.45;140.85;;;;;;;;;;4979669;28;20042;-92
2022/03/24 15:38:30;;;;;;;310.02;136.15;;;;;;;;;;4977019;28;20070;-91
2022/03/24 15:40:56;;;;;;;263.15;111.35;;;;;;;;;;4972020;28;20094;-91
2022/03/24 15:43:29;;;;;;;257.55;108.28;;;;;;;;;;4977781;28;20042;-91
2022/03/24 15:45:55;;;;;;;242.48;107.60;;;;;;;;;;4976988;28;20034;-92